Aeroporto :
LOGIN :

Iscrizione | Disclaimer

   EN    FR    IT 

 










Sommario :    VFR   VFR Marginale   IFR   IFR Intensivo   IFR Molto Intensivo
Visibilità : 
Base nubi : 
>= 8 km
>= 3000ft
5 / 8 km
1000 / 3000 ft
1500m / 5 km
500 / 1000 ft
800 / 1500m
200 / 500 ft
< 800m
< 200 ft
Simboli :   Temporali  Nebbia  Neve Forte  Precipitazioni Forti  Vento > 20 kt
SIGMETs :   Varie  Temporali  Ghiacco  Turbolenza  Onda orograficha  Ceneri Vulcaniche






- Altitudine del aeroporto : 319 ft


EIME - Casement Air Base

ULTIMO METAR :
  • 041700Z 33013KT 310V020 9999 OVC014 05/03 Q0982

METARs OBSOLETI :
  • 041630Z 33015KT 300V010 9999 BKN013 OVC016 05/03 Q0982
  • 041600Z 34013KT 310V010 9999 BKN013 OVC017 05/03 Q0981
  • 041530Z 34010KT 290V010 9999 BKN010 BKN016 05/03 Q0981
  • 041500Z 33012KT 300V010 9999 -RA BKN010 BKN014 04/03 Q0980

TAF TAF EIME
Valido dal 04 a 18 ore il 05 a 03 ore UTC


041700Z 0418/0503 34017KT 9999 FEW007 BKN014
TEMPO 0418/0503 34018G28KT
TEMPO 0418/0424 -RA BKN007 SCT018CB
PROB30
TEMPO 0418/0424 4000 RA



MetMap, La meteo Aeronautica in un colpo d'occhio ! - Copyright ORBIFLY Dicembre 2007 - Disclaimer

ORBIFLY MET'MAP TEAM :

Programmazione e sviluppo : Alexandra Zaïnal
Concezione : Baudouin d'Aumeries
Aiuto per la programmazione : Marc-Olivier Méhu
Supporto tecnico e logistico : Manuel Goepfert
Aiuto per la traduzione : Arnaldo La Scala

Contatto : metmap@orbifly.com




FONTI E CREDITI :

   NOAA